Time;durP1;ratioP1;P1;durP2;ratioP2;P2;SDS_P1;SDS_P2;PMS_P1;PMS_P2;Temp;Humidity;BMP_temperature;BMP_pressure;BME280_temperature;BME280_humidity;BME280_pressure;Samples;Min_cycle;Max_cycle;Signal;HPM_P1;HPM_P2
2023/04/10 00:00:40;;;;;;;24.98;13.55;;;;;;;7.49;59.68;99867.47;4915866;28;20087;-58
2023/04/10 00:03:10;;;;;;;26.10;13.57;;;;;;;7.56;60.09;99855.25;4915823;28;20415;-59
2023/04/10 00:05:41;;;;;;;31.17;14.38;;;;;;;7.75;59.82;99875.00;4916364;28;20045;-58
2023/04/10 00:08:13;;;;;;;28.45;13.60;;;;;;;7.68;59.86;99856.88;4916508;28;20134;-59
2023/04/10 00:10:44;;;;;;;24.05;13.27;;;;;;;7.63;60.23;99837.88;4916491;28;20059;-58
2023/04/10 00:13:15;;;;;;;28.80;13.52;;;;;;;7.92;59.77;99879.16;4916170;28;20131;-57
2023/04/10 00:15:45;;;;;;;23.80;12.27;;;;;;;7.97;59.99;99864.34;4914259;28;20463;-58
2023/04/10 00:18:15;;;;;;;22.50;12.85;;;;;;;8.06;59.64;99861.63;4923481;28;20053;-58
2023/04/10 00:20:46;;;;;;;24.45;13.55;;;;;;;8.11;58.92;99867.66;4921559;28;20037;-58
2023/04/10 00:23:21;;;;;;;23.48;11.82;;;;;;;8.17;59.20;99872.75;4934642;28;20661;-58
2023/04/10 00:25:52;;;;;;;23.40;12.85;;;;;;;8.35;58.74;99866.44;4930983;28;20067;-57
2023/04/10 00:28:22;;;;;;;23.00;12.48;;;;;;;8.48;58.87;99872.38;4931311;28;20052;-57
2023/04/10 00:30:53;;;;;;;29.38;13.35;;;;;;;8.49;58.15;99868.91;4930881;28;20054;-57
2023/04/10 00:33:23;;;;;;;25.13;11.93;;;;;;;8.49;58.19;99873.25;4931068;28;20440;-58
2023/04/10 00:35:54;;;;;;;25.25;12.63;;;;;;;8.48;57.98;99872.38;4930719;28;20406;-58
2023/04/10 00:38:26;;;;;;;24.42;12.85;;;;;;;8.64;58.17;99873.88;4931370;28;20051;-58
2023/04/10 00:40:56;;;;;;;28.88;12.55;;;;;;;8.73;57.54;99874.63;4923467;28;20052;-58
2023/04/10 00:43:27;;;;;;;21.63;12.35;;;;;;;8.87;57.94;99885.72;4931401;28;20056;-57
2023/04/10 00:45:57;;;;;;;24.85;11.18;;;;;;;8.96;56.60;99885.56;4930756;28;20366;-57
2023/04/10 00:48:28;;;;;;;22.48;11.90;;;;;;;9.09;57.32;99880.16;4930976;28;20044;-58
2023/04/10 00:50:59;;;;;;;20.85;11.38;;;;;;;9.17;57.28;99880.88;4914697;28;20044;-56
2023/04/10 00:53:31;;;;;;;24.25;12.00;;;;;;;9.29;57.12;99878.94;4911876;28;20044;-56
2023/04/10 00:56:03;;;;;;;27.77;12.90;;;;;;;9.31;56.48;99885.84;4911396;28;20048;-58
2023/04/10 00:58:33;;;;;;;20.25;12.63;;;;;;;9.29;55.88;99884.16;4892022;28;20112;-56
2023/04/10 01:01:04;;;;;;;28.08;12.38;;;;;;;9.39;56.31;99887.47;4895200;28;20138;-57
2023/04/10 01:03:35;;;;;;;20.00;12.52;;;;;;;9.53;55.67;99881.13;4906761;28;20076;-58
2023/04/10 01:06:13;;;;;;;24.55;11.60;;;;;;;9.67;55.10;99868.69;4900326;28;20069;-59
2023/04/10 01:08:54;;;;;;;21.58;12.35;;;;;;;9.68;55.30;99875.63;4916135;28;20052;-59
2023/04/10 01:11:37;;;;;;;25.58;12.60;;;;;;;9.80;55.05;99870.16;4896706;28;20052;-59
2023/04/10 01:14:15;;;;;;;23.77;11.63;;;;;;;9.78;54.28;99871.94;4896122;28;20044;-58
2023/04/10 01:16:52;;;;;;;26.25;11.88;;;;;;;9.83;54.74;99870.09;4900974;28;20064;-58
2023/04/10 01:19:40;;;;;;;21.63;12.30;;;;;;;9.82;53.91;99842.28;4908005;28;20439;-58
2023/04/10 01:22:17;;;;;;;23.77;10.90;;;;;;;9.98;54.34;99862.88;4896833;28;20053;-58
2023/04/10 01:25:05;;;;;;;25.08;11.77;;;;;;;9.91;54.07;99868.22;4886153;28;20056;-57
2023/04/10 01:27:53;;;;;;;23.15;11.48;;;;;;;9.82;53.47;99857.97;4893717;28;20053;-58
2023/04/10 01:30:27;;;;;;;25.63;11.75;;;;;;;9.71;54.61;99859.94;4898741;28;20053;-58
2023/04/10 01:33:03;;;;;;;23.83;11.43;;;;;;;9.94;54.58;99857.72;4890804;28;20053;-58
2023/04/10 01:35:35;;;;;;;21.58;12.30;;;;;;;10.07;54.02;99854.84;4890183;28;20060;-58
2023/04/10 01:38:09;;;;;;;22.90;12.30;;;;;;;10.29;54.31;99855.28;4884705;28;20057;-57
2023/04/10 01:40:47;;;;;;;24.33;10.98;;;;;;;10.45;53.18;99847.97;4890484;28;20404;-58
2023/04/10 01:43:19;;;;;;;23.00;11.05;;;;;;;10.54;53.23;99837.31;4880936;28;20057;-54
2023/04/10 01:45:53;;;;;;;21.52;10.68;;;;;;;10.66;52.63;99852.72;4891635;28;20049;-55
2023/04/10 01:48:24;;;;;;;27.15;11.43;;;;;;;10.87;53.13;99845.25;4891016;28;20123;-56
2023/04/10 01:50:56;;;;;;;30.00;10.80;;;;;;;10.79;51.69;99828.00;4890201;28;20061;-57
2023/04/10 01:53:27;;;;;;;22.17;10.63;;;;;;;10.96;50.96;99845.03;4882387;28;20115;-55
2023/04/10 01:55:58;;;;;;;21.88;10.40;;;;;;;10.91;50.84;99837.31;4890780;28;20056;-54
2023/04/10 01:58:28;;;;;;;17.80;9.85;;;;;;;10.99;50.72;99831.88;4890442;28;20779;-56
2023/04/10 02:01:01;;;;;;;15.70;8.98;;;;;;;10.87;49.45;99834.78;4904463;28;20044;-57
2023/04/10 02:03:31;;;;;;;15.57;8.40;;;;;;;10.64;49.27;99823.16;4903089;28;20516;-58
2023/04/10 02:06:12;;;;;;;14.00;8.30;;;;;;;10.84;48.50;99829.66;4903736;28;20382;-55
2023/04/10 02:08:53;;;;;;;12.48;8.05;;;;;;;10.96;47.38;99824.13;4889475;28;20095;-56
2023/04/10 02:11:34;;;;;;;15.07;7.35;;;;;;;11.13;45.74;99831.53;4880805;28;20045;-56
2023/04/10 02:14:09;;;;;;;16.23;7.78;;;;;;;11.20;46.46;99823.47;4879943;28;20502;-56
2023/04/10 02:16:42;;;;;;;13.57;7.32;;;;;;;11.34;46.59;99811.81;4897397;28;20056;-56
2023/04/10 02:19:13;;;;;;;14.45;8.23;;;;;;;11.40;45.77;99815.09;4889353;28;20111;-56
2023/04/10 02:21:47;;;;;;;15.68;7.38;;;;;;;11.48;45.16;99816.66;4896659;28;20411;-55
2023/04/10 02:24:18;;;;;;;18.70;6.88;;;;;;;11.48;44.43;99812.28;4873814;28;20621;-56
2023/04/10 02:26:50;;;;;;;11.35;6.28;;;;;;;11.52;44.08;99806.06;4885854;28;20044;-57
2023/04/10 02:29:21;;;;;;;13.57;6.85;;;;;;;11.31;44.88;99742.13;4885319;28;20103;-56
2023/04/10 02:31:53;;;;;;;13.02;6.55;;;;;;;11.84;43.47;99805.16;4882835;28;20064;-57
2023/04/10 02:34:23;;;;;;;11.63;6.07;;;;;;;11.90;42.02;99806.78;4885556;28;20344;-55
2023/04/10 02:36:54;;;;;;;11.15;6.00;;;;;;;11.64;41.22;99799.66;4886382;28;20110;-55
2023/04/10 02:39:24;;;;;;;11.73;5.97;;;;;;;11.44;42.00;99805.44;4886798;28;20140;-58
2023/04/10 02:41:55;;;;;;;10.75;5.72;;;;;;;11.49;41.50;99803.53;4886135;28;20073;-59
2023/04/10 02:44:26;;;;;;;13.60;6.00;;;;;;;11.57;41.60;99798.09;4880171;28;21461;-56
2023/04/10 02:46:58;;;;;;;8.43;5.75;;;;;;;11.75;42.58;99799.34;4891747;28;20060;-57
2023/04/10 02:49:28;;;;;;;11.77;5.80;;;;;;;11.59;40.85;99797.16;4886497;28;20041;-58
2023/04/10 02:51:59;;;;;;;10.88;5.78;;;;;;;11.56;41.79;99788.53;4885210;28;20060;-58
2023/04/10 02:54:29;;;;;;;11.00;5.65;;;;;;;11.59;41.53;99793.69;4885782;28;20059;-58
2023/04/10 02:57:00;;;;;;;10.50;5.55;;;;;;;11.69;42.11;99789.06;4886804;28;20049;-58
2023/04/10 02:59:32;;;;;;;11.13;6.68;;;;;;;11.78;41.58;99794.00;4885608;28;20064;-58
2023/04/10 03:02:04;;;;;;;13.20;5.85;;;;;;;11.57;40.03;99764.94;4886010;28;20053;-58
2023/04/10 03:04:35;;;;;;;10.40;6.43;;;;;;;11.71;40.81;99782.03;4885144;28;20274;-58
2023/04/10 03:07:05;;;;;;;13.00;6.03;;;;;;;11.97;41.49;99795.22;4885054;28;20996;-57
2023/04/10 03:09:36;;;;;;;9.73;6.13;;;;;;;12.04;41.20;99791.53;4892548;28;20246;-58
2023/04/10 03:12:06;;;;;;;11.45;6.03;;;;;;;11.89;38.20;99781.50;4889507;28;20061;-58
2023/04/10 03:14:37;;;;;;;12.55;5.50;;;;;;;11.80;39.61;99777.34;4887867;28;20477;-58
2023/04/10 03:17:09;;;;;;;11.85;5.88;;;;;;;11.68;39.27;99766.38;4886392;28;20063;-59
2023/04/10 03:19:40;;;;;;;8.35;5.63;;;;;;;11.80;40.07;99779.13;4885988;28;20068;-58
2023/04/10 03:22:11;;;;;;;9.30;5.30;;;;;;;11.78;39.82;99752.13;4899891;28;20062;-58
2023/04/10 03:24:42;;;;;;;8.02;5.15;;;;;;;12.06;39.12;99768.78;4908778;28;20102;-59
2023/04/10 03:27:13;;;;;;;10.25;5.25;;;;;;;12.02;38.35;99772.38;4907916;28;20048;-59
2023/04/10 03:29:44;;;;;;;10.07;4.80;;;;;;;11.77;35.99;99750.41;4911413;28;20048;-58
2023/04/10 03:32:16;;;;;;;8.65;5.75;;;;;;;11.38;37.48;99746.31;4912134;28;20167;-59
2023/04/10 03:34:46;;;;;;;11.15;5.38;;;;;;;11.51;39.84;99759.88;4904139;28;20060;-58
2023/04/10 03:37:18;;;;;;;8.98;5.32;;;;;;;11.61;38.54;99756.09;4911909;28;20052;-59
2023/04/10 03:39:48;;;;;;;11.63;6.15;;;;;;;11.57;38.99;99751.84;4911809;28;20101;-58
2023/04/10 03:42:19;;;;;;;11.90;4.95;;;;;;;11.68;39.04;99745.44;4911713;28;20059;-58
2023/04/10 03:44:49;;;;;;;9.50;5.57;;;;;;;11.59;37.31;99751.81;4911156;28;20056;-59
2023/04/10 03:47:22;;;;;;;12.30;4.55;;;;;;;11.52;38.86;99753.75;4911832;28;20060;-58
2023/04/10 03:49:52;;;;;;;9.40;4.80;;;;;;;11.45;37.34;99760.03;4910092;28;20075;-59
2023/04/10 03:52:23;;;;;;;12.88;4.97;;;;;;;11.41;36.90;99747.97;4911658;28;20056;-59
2023/04/10 03:54:53;;;;;;;11.38;4.78;;;;;;;11.47;38.22;99755.63;4911383;28;20059;-59
2023/04/10 03:57:24;;;;;;;10.60;5.03;;;;;;;11.52;38.29;99751.13;4911095;28;20052;-59
2023/04/10 03:59:55;;;;;;;9.80;5.05;;;;;;;11.59;38.60;99757.91;4911147;28;20130;-59
2023/04/10 04:02:27;;;;;;;13.00;5.05;;;;;;;11.62;37.37;99752.56;4910551;28;20065;-58
2023/04/10 04:04:58;;;;;;;8.32;5.00;;;;;;;11.50;36.71;99752.91;4911472;28;20048;-59
2023/04/10 04:07:29;;;;;;;9.18;5.13;;;;;;;11.39;35.97;99745.38;4911343;28;20483;-58
2023/04/10 04:09:59;;;;;;;11.30;4.95;;;;;;;11.43;37.98;99746.16;4911707;28;20056;-59
2023/04/10 04:12:30;;;;;;;9.65;4.63;;;;;;;11.35;36.42;99709.75;4911702;28;20378;-59
2023/04/10 04:15:00;;;;;;;9.73;5.03;;;;;;;11.76;37.21;99754.81;4910445;28;20060;-58
2023/04/10 04:17:33;;;;;;;12.48;4.78;;;;;;;11.89;37.44;99744.84;4910845;28;20048;-58
2023/04/10 04:20:03;;;;;;;10.20;5.15;;;;;;;11.99;36.50;99758.53;4910692;28;20402;-59
2023/04/10 04:22:34;;;;;;;10.32;4.97;;;;;;;11.99;35.97;99750.69;4910548;28;20061;-59
2023/04/10 04:25:07;;;;;;;7.95;4.43;;;;;;;12.08;35.67;99739.91;4911263;28;20064;-58
2023/04/10 04:27:38;;;;;;;11.25;4.65;;;;;;;11.99;34.82;99746.28;4900639;28;20052;-57
2023/04/10 04:30:10;;;;;;;9.60;4.90;;;;;;;11.84;35.86;99744.09;4910585;28;20125;-57
2023/04/10 04:32:42;;;;;;;10.52;4.63;;;;;;;11.85;35.31;99737.94;4909964;28;20079;-57
2023/04/10 04:35:13;;;;;;;7.03;4.70;;;;;;;11.85;36.19;99740.56;4910931;28;20052;-57
2023/04/10 04:37:43;;;;;;;14.05;4.95;;;;;;;11.73;36.01;99738.31;4911045;28;20769;-57
2023/04/10 04:40:14;;;;;;;11.07;4.60;;;;;;;11.88;36.34;99737.88;4910400;28;20056;-57
2023/04/10 04:42:45;;;;;;;8.13;4.25;;;;;;;11.83;35.59;99729.28;4910167;28;20139;-56
2023/04/10 04:45:15;;;;;;;7.30;4.28;;;;;;;11.92;35.03;99729.06;4909835;28;20061;-57
2023/04/10 04:47:47;;;;;;;7.20;3.83;;;;;;;11.98;34.58;99731.50;4907182;28;20063;-56
2023/04/10 04:50:18;;;;;;;12.23;4.55;;;;;;;12.04;36.49;99728.69;4910422;28;20052;-57
2023/04/10 04:52:49;;;;;;;10.65;4.43;;;;;;;12.14;35.69;99738.88;4910578;28;20055;-57
2023/04/10 04:55:20;;;;;;;9.40;4.20;;;;;;;12.22;36.21;99744.72;4909450;28;20056;-57
2023/04/10 04:57:50;;;;;;;10.45;4.35;;;;;;;12.33;35.81;99733.88;4910333;28;20464;-56
2023/04/10 05:00:21;;;;;;;6.07;4.00;;;;;;;12.26;33.85;99733.25;4909806;28;20056;-58
2023/04/10 05:02:53;;;;;;;10.20;4.15;;;;;;;12.30;36.26;99734.84;4910564;28;20052;-57
2023/04/10 05:05:24;;;;;;;7.53;4.18;;;;;;;12.21;33.97;99736.00;4910272;28;20059;-57
2023/04/10 05:07:54;;;;;;;9.45;4.10;;;;;;;12.16;35.12;99726.59;4910033;28;20052;-57
2023/04/10 05:10:25;;;;;;;10.43;4.85;;;;;;;12.09;35.25;99720.69;4909670;28;20057;-56
2023/04/10 05:12:55;;;;;;;9.38;4.40;;;;;;;12.24;35.96;99729.81;4909411;28;20076;-56
2023/04/10 05:15:26;;;;;;;16.85;5.55;;;;;;;12.32;35.04;99730.44;4915489;28;20060;-56
2023/04/10 05:17:58;;;;;;;13.32;4.90;;;;;;;12.19;35.47;99726.50;4912849;28;20110;-56
2023/04/10 05:20:29;;;;;;;8.63;4.75;;;;;;;12.12;33.93;99724.97;4909591;28;20076;-56
2023/04/10 05:22:59;;;;;;;7.72;4.20;;;;;;;12.05;34.63;99714.66;4909135;28;20546;-56
2023/04/10 05:25:30;;;;;;;8.68;4.53;;;;;;;12.14;35.64;99718.78;4910583;28;20050;-57
2023/04/10 05:28:01;;;;;;;6.65;3.95;;;;;;;12.28;36.44;99723.56;4909840;28;20064;-57
2023/04/10 05:30:31;;;;;;;7.15;4.60;;;;;;;12.39;34.93;99723.22;4909870;28;20143;-57
2023/04/10 05:33:21;;;;;;;9.13;4.38;;;;;;;12.45;35.44;99730.88;4909580;28;20063;-57
2023/04/10 05:35:53;;;;;;;7.82;4.25;;;;;;;12.43;35.79;99719.59;4899311;28;20118;-57
2023/04/10 05:38:24;;;;;;;8.57;4.28;;;;;;;12.49;35.70;99720.25;4910063;28;20052;-57
2023/04/10 05:40:56;;;;;;;8.85;4.15;;;;;;;12.59;34.98;99714.72;4908605;28;25358;-57
2023/04/10 05:43:26;;;;;;;6.28;4.13;;;;;;;12.38;33.30;99719.75;4901739;28;20138;-57
2023/04/10 05:45:57;;;;;;;8.13;4.18;;;;;;;12.36;35.47;99718.94;4909599;28;20108;-56
2023/04/10 05:48:32;;;;;;;8.70;4.32;;;;;;;12.54;35.81;99716.63;4909389;28;20569;-57
2023/04/10 05:51:03;;;;;;;7.88;4.55;;;;;;;12.56;36.23;99704.34;4911142;28;20048;-55
2023/04/10 05:53:34;;;;;;;7.22;4.25;;;;;;;12.73;36.08;99712.50;4913604;28;20053;-55
2023/04/10 05:56:04;;;;;;;8.10;4.10;;;;;;;12.85;35.93;99712.03;4913791;28;20082;-55
2023/04/10 05:58:35;;;;;;;10.25;4.03;;;;;;;12.73;35.27;99712.50;4912831;28;20056;-54
2023/04/10 06:01:06;;;;;;;11.60;4.85;;;;;;;12.75;35.54;99710.66;4904659;28;20177;-57
2023/04/10 06:03:38;;;;;;;6.78;4.40;;;;;;;12.75;35.07;99708.03;4911104;28;20045;-57
2023/04/10 06:06:09;;;;;;;5.65;4.10;;;;;;;12.70;36.02;99705.59;4909410;28;20048;-57
2023/04/10 06:08:41;;;;;;;7.40;4.32;;;;;;;12.74;36.86;99701.09;4909551;28;20135;-57
2023/04/10 06:11:11;;;;;;;8.25;4.80;;;;;;;12.80;35.28;99697.38;4909654;28;20053;-56
2023/04/10 06:13:42;;;;;;;10.55;4.20;;;;;;;12.86;36.60;99703.28;4908154;28;20044;-56
2023/04/10 06:16:13;;;;;;;8.02;4.25;;;;;;;12.66;35.68;99700.50;4908412;28;20055;-58
2023/04/10 06:18:46;;;;;;;9.18;4.30;;;;;;;12.57;36.08;99696.41;4908544;28;20052;-57
2023/04/10 06:21:17;;;;;;;9.70;4.20;;;;;;;12.39;35.71;99697.88;4910602;28;20045;-57
2023/04/10 06:23:47;;;;;;;8.25;4.40;;;;;;;12.25;35.41;99690.47;4909553;28;20057;-56
2023/04/10 06:26:18;;;;;;;8.88;4.38;;;;;;;12.13;36.29;99695.25;4908578;28;20056;-57
2023/04/10 06:28:48;;;;;;;7.88;4.40;;;;;;;11.98;36.09;99701.81;4907772;28;20053;-57
2023/04/10 06:31:21;;;;;;;8.10;4.25;;;;;;;11.73;37.39;99691.22;4908267;28;20056;-56
2023/04/10 06:33:54;;;;;;;9.15;4.50;;;;;;;11.74;37.12;99699.03;4907543;28;20352;-57
2023/04/10 06:36:25;;;;;;;8.00;5.55;;;;;;;11.63;35.87;99691.50;4906907;28;20060;-56
2023/04/10 06:38:56;;;;;;;7.07;4.57;;;;;;;11.68;36.45;99698.34;4902067;28;20053;-56
2023/04/10 06:41:27;;;;;;;8.18;3.90;;;;;;;11.81;37.62;99699.69;4910875;28;20061;-56
2023/04/10 06:43:57;;;;;;;10.45;4.85;;;;;;;11.64;37.23;99656.56;4907120;28;20801;-57
2023/04/10 06:46:31;;;;;;;9.68;4.20;;;;;;;11.96;36.63;99699.25;4907497;28;20084;-57
2023/04/10 06:49:04;;;;;;;7.32;4.30;;;;;;;11.93;36.28;99699.38;4907233;28;20071;-56
2023/04/10 06:51:34;;;;;;;8.43;4.18;;;;;;;11.92;35.96;99696.78;4906771;28;20055;-57
2023/04/10 06:54:05;;;;;;;6.38;3.75;;;;;;;11.77;36.16;99687.59;4906891;28;22220;-56
2023/04/10 06:56:36;;;;;;;7.07;3.90;;;;;;;11.91;36.60;99700.31;4908626;28;20050;-57
2023/04/10 06:59:06;;;;;;;8.25;4.20;;;;;;;11.96;36.52;99694.03;4915775;28;20045;-56
2023/04/10 07:01:37;;;;;;;9.52;4.07;;;;;;;11.98;36.73;99697.47;4911591;28;20049;-56
2023/04/10 07:04:09;;;;;;;14.48;4.50;;;;;;;12.01;36.19;99686.88;4909166;28;20114;-56
2023/04/10 07:06:40;;;;;;;7.68;4.43;;;;;;;12.01;35.41;99697.34;4910585;28;20063;-57
2023/04/10 07:09:11;;;;;;;13.30;4.43;;;;;;;11.93;35.34;99694.13;4910606;28;21301;-56
2023/04/10 07:11:41;;;;;;;7.22;4.40;;;;;;;11.82;35.85;99693.56;4910213;28;20075;-56
2023/04/10 07:14:12;;;;;;;24.20;7.32;;;;;;;11.71;40.30;99693.88;4911420;28;20474;-57
2023/04/10 07:16:42;;;;;;;20.67;8.57;;;;;;;11.57;44.58;99707.38;4910706;28;20576;-57
2023/04/10 07:19:15;;;;;;;26.77;9.38;;;;;;;11.30;46.49;99709.00;4909393;28;20048;-56
2023/04/10 07:21:48;;;;;;;31.70;9.38;;;;;;;11.18;47.90;99699.78;4908247;28;20045;-56
2023/04/10 07:24:19;;;;;;;21.25;9.75;;;;;;;11.04;48.42;99701.91;4910964;28;20049;-56
2023/04/10 07:26:50;;;;;;;22.00;8.00;;;;;;;10.90;49.29;99697.03;4910944;28;20463;-57
2023/04/10 07:29:20;;;;;;;24.55;9.15;;;;;;;10.76;49.37;99702.66;4912055;28;20063;-57
2023/04/10 07:31:51;;;;;;;29.65;9.60;;;;;;;10.65;50.32;99696.81;4911066;28;20063;-56
2023/04/10 07:34:24;;;;;;;25.02;9.75;;;;;;;10.55;50.69;99684.91;4911181;28;20044;-57
2023/04/10 07:36:55;;;;;;;26.35;12.27;;;;;;;10.49;51.39;99698.13;4910586;28;20044;-56
2023/04/10 07:39:25;;;;;;;20.80;9.73;;;;;;;10.43;51.56;99698.25;4909418;28;20108;-57
2023/04/10 07:41:56;;;;;;;21.38;9.07;;;;;;;10.41;51.77;99697.44;4921429;28;20064;-57
2023/04/10 07:44:27;;;;;;;28.08;9.75;;;;;;;10.27;51.73;99703.84;4904714;28;20076;-55
2023/04/10 07:46:58;;;;;;;19.48;9.13;;;;;;;10.29;51.94;99704.69;4911586;28;20085;-57
2023/04/10 07:49:30;;;;;;;17.38;9.25;;;;;;;10.27;52.19;99693.38;4911189;28;20052;-57
2023/04/10 07:52:00;;;;;;;23.92;10.10;;;;;;;10.22;52.69;99697.88;4910786;28;20430;-57
2023/04/10 07:54:33;;;;;;;26.67;11.00;;;;;;;10.17;52.99;99697.13;4910855;28;20056;-57
2023/04/10 07:57:04;;;;;;;21.73;10.20;;;;;;;10.11;53.44;99692.91;4910500;28;20513;-57
2023/04/10 07:59:37;;;;;;;21.48;9.02;;;;;;;10.11;53.62;99694.66;4919476;28;20515;-56
2023/04/10 08:02:08;;;;;;;24.52;10.55;;;;;;;10.07;53.66;99700.84;4903365;28;20048;-56
2023/04/10 08:04:41;;;;;;;22.02;9.57;;;;;;;10.02;53.70;99700.09;4911948;28;20379;-57
2023/04/10 08:07:12;;;;;;;21.13;10.68;;;;;;;9.88;53.74;99711.72;4919696;28;20497;-57
2023/04/10 08:09:42;;;;;;;24.67;11.88;;;;;;;9.75;54.10;99705.03;4910384;28;20048;-57
2023/04/10 08:12:12;;;;;;;32.08;11.13;;;;;;;9.61;54.72;99701.84;4910008;28;20052;-55
2023/04/10 08:14:44;;;;;;;21.42;9.48;;;;;;;9.61;55.12;99710.56;4910139;28;20061;-56
2023/04/10 08:17:14;;;;;;;25.48;11.25;;;;;;;9.47;55.15;99710.84;4910834;28;20052;-56
2023/04/10 08:19:46;;;;;;;24.83;11.35;;;;;;;9.31;55.31;99698.13;4909805;28;23054;-56
2023/04/10 08:22:17;;;;;;;24.52;11.55;;;;;;;9.38;55.90;99720.59;4909168;28;20053;-56
2023/04/10 08:24:47;;;;;;;26.20;10.77;;;;;;;9.29;56.36;99721.66;4913730;28;20045;-58
2023/04/10 08:27:18;;;;;;;29.15;12.63;;;;;;;9.16;56.80;99723.63;4909908;28;20052;-58
2023/04/10 08:29:48;;;;;;;27.20;14.52;;;;;;;9.03;57.09;99725.59;4908835;28;20386;-58
2023/04/10 08:32:19;;;;;;;38.42;17.92;;;;;;;8.87;57.76;99718.97;4910455;28;20059;-59
2023/04/10 08:34:51;;;;;;;67.55;31.85;;;;;;;8.87;58.34;99723.31;4910415;28;20041;-58
2023/04/10 08:37:21;;;;;;;84.10;37.58;;;;;;;8.72;58.79;99725.31;4910472;28;20897;-55
2023/04/10 08:39:52;;;;;;;60.83;28.42;;;;;;;8.54;59.13;99716.06;4909238;28;20052;-58
2023/04/10 08:42:22;;;;;;;57.85;27.77;;;;;;;8.55;59.23;99722.97;4910215;28;20121;-56
2023/04/10 08:44:53;;;;;;;51.65;24.48;;;;;;;8.47;59.63;99730.06;4910019;28;20060;-56
2023/04/10 08:47:28;;;;;;;115.90;46.08;;;;;;;8.38;59.78;99714.56;4910709;28;20113;-55
2023/04/10 08:50:06;;;;;;;101.20;45.03;;;;;;;8.33;60.06;99727.63;4899901;28;20076;-56
2023/04/10 08:52:44;;;;;;;107.32;46.75;;;;;;;8.16;59.95;99709.69;4903018;28;20055;-55
2023/04/10 08:55:15;;;;;;;123.13;55.55;;;;;;;8.12;60.55;99731.44;4909587;28;20068;-56
2023/04/10 08:57:46;;;;;;;98.07;43.53;;;;;;;8.05;60.82;99742.81;4908771;28;20075;-56
2023/04/10 09:00:33;;;;;;;69.43;36.15;;;;;;;7.93;61.20;99737.78;4899302;28;20055;-56
2023/04/10 09:03:07;;;;;;;44.22;19.05;;;;;;;7.80;61.19;99736.25;4909428;28;20056;-55
2023/04/10 09:05:42;;;;;;;29.98;12.73;;;;;;;7.67;60.98;99739.00;4899694;28;20056;-56
2023/04/10 09:08:15;;;;;;;22.67;11.50;;;;;;;7.44;61.23;99746.22;4910585;28;20044;-55
2023/04/10 09:10:54;;;;;;;17.52;9.05;;;;;;;7.01;61.45;99744.94;4907887;28;20069;-55
2023/04/10 09:13:37;;;;;;;19.85;8.45;;;;;;;6.52;62.48;99747.16;4909167;28;20056;-57
2023/04/10 09:16:12;;;;;;;24.92;11.25;;;;;;;6.19;63.12;99757.78;4897626;28;20048;-57
2023/04/10 09:18:48;;;;;;;20.55;11.95;;;;;;;5.85;63.81;99736.31;4909569;28;20052;-57
2023/04/10 09:21:22;;;;;;;18.10;9.20;;;;;;;5.87;64.41;99750.16;4898886;28;20471;-56
2023/04/10 09:24:01;;;;;;;16.08;9.52;;;;;;;5.70;65.03;99747.63;4907894;28;20463;-57
2023/04/10 09:26:33;;;;;;;23.48;9.65;;;;;;;5.78;65.59;99763.16;4898478;28;20041;-57
2023/04/10 09:29:05;;;;;;;18.63;8.30;;;;;;;5.49;65.55;99748.59;4909413;28;20059;-57
2023/04/10 09:31:37;;;;;;;18.45;9.40;;;;;;;5.40;66.14;99766.78;4906574;28;20132;-58
2023/04/10 09:34:13;;;;;;;19.80;9.32;;;;;;;5.26;66.50;99771.13;4909749;28;20066;-57
2023/04/10 09:36:55;;;;;;;20.20;10.23;;;;;;;5.08;66.93;99785.84;4909265;28;20048;-57
2023/04/10 09:39:37;;;;;;;27.83;12.35;;;;;;;4.98;67.60;99786.72;4897415;28;20810;-57
2023/04/10 09:42:08;;;;;;;42.05;17.05;;;;;;;4.68;67.84;99772.94;4897336;28;20056;-55
2023/04/10 09:44:40;;;;;;;38.50;16.13;;;;;;;4.56;68.83;99788.47;4909149;28;20052;-57
2023/04/10 09:47:23;;;;;;;26.42;11.60;;;;;;;4.11;69.47;99753.94;4909614;28;20053;-56
2023/04/10 09:49:59;;;;;;;19.98;10.32;;;;;;;4.11;70.48;99784.94;4897957;28;20139;-57
2023/04/10 09:52:38;;;;;;;14.52;9.45;;;;;;;3.50;70.71;99702.13;4898135;28;20056;-57
2023/04/10 09:55:18;;;;;;;19.40;9.50;;;;;;;3.82;71.57;99788.34;4898971;28;20079;-57
2023/04/10 09:57:51;;;;;;;22.58;9.00;;;;;;;3.78;72.06;99790.91;4898325;28;20052;-57
2023/04/10 10:00:21;;;;;;;17.08;9.82;;;;;;;3.74;72.48;99800.34;4907338;28;20060;-58
2023/04/10 10:02:53;;;;;;;20.38;8.88;;;;;;;3.68;72.89;99810.66;4908476;28;20858;-57
2023/04/10 10:05:26;;;;;;;21.50;9.13;;;;;;;3.54;73.64;99813.19;4909356;28;20063;-57
2023/04/10 10:08:02;;;;;;;35.85;17.02;;;;;;;3.28;73.76;99800.13;4900836;28;20057;-57
2023/04/10 10:10:32;;;;;;;23.38;13.90;;;;;;;3.31;73.82;99830.28;4908852;28;20121;-57
2023/04/10 10:13:05;;;;;;;23.42;10.50;;;;;;;3.30;74.15;99838.91;4909191;28;20056;-57
2023/04/10 10:15:39;;;;;;;22.23;9.45;;;;;;;3.15;74.64;99819.00;4907583;28;20464;-57
2023/04/10 10:18:18;;;;;;;18.40;9.73;;;;;;;3.05;75.19;99812.91;4908769;28;20045;-57
2023/04/10 10:20:51;;;;;;;63.35;33.58;;;;;;;3.05;74.84;99835.28;4898581;28;20518;-58
2023/04/10 10:23:26;;;;;;;62.50;32.85;;;;;;;2.97;75.68;99841.25;4908766;28;20095;-57
2023/04/10 10:25:59;;;;;;;50.97;33.35;;;;;;;2.69;76.45;99839.28;4899179;28;20052;-57
2023/04/10 10:28:34;;;;;;;21.75;13.77;;;;;;;2.41;77.61;99833.88;4908630;28;20113;-57
2023/04/10 10:31:05;;;;;;;23.38;13.82;;;;;;;2.40;78.11;99852.78;4907992;28;20143;-58
2023/04/10 10:33:38;;;;;;;19.95;12.10;;;;;;;2.41;78.75;99844.19;4905961;28;20053;-57
2023/04/10 10:36:14;;;;;;;24.13;13.70;;;;;;;2.49;78.79;99852.84;4908535;28;20494;-57
2023/04/10 10:39:01;;;;;;;36.05;21.80;;;;;;;2.43;78.61;99855.38;4908615;28;20110;-57
2023/04/10 10:41:44;;;;;;;54.90;31.27;;;;;;;2.29;78.94;99864.69;4898216;28;20474;-57
2023/04/10 10:44:21;;;;;;;34.67;19.80;;;;;;;2.15;79.64;99867.97;4910604;28;20054;-57
2023/04/10 10:47:01;;;;;;;24.42;13.63;;;;;;;2.03;80.05;99869.56;4898018;28;20406;-58
2023/04/10 10:49:54;;;;;;;17.33;11.68;;;;;;;2.03;80.50;99885.03;4898507;28;20063;-58
2023/04/10 10:52:45;;;;;;;22.30;11.45;;;;;;;2.02;80.85;99885.84;4898675;28;20055;-58
2023/04/10 10:55:37;;;;;;;16.80;11.63;;;;;;;1.96;80.64;99896.94;4894905;28;20380;-56
2023/04/10 10:58:12;;;;;;;18.00;11.23;;;;;;;1.89;80.89;99895.16;4887079;28;20084;-58
2023/04/10 11:01:09;;;;;;;21.00;11.63;;;;;;;1.84;81.44;99896.78;4908185;28;20427;-58
2023/04/10 11:03:47;;;;;;;23.52;12.70;;;;;;;1.86;81.85;99895.09;4897703;28;20556;-57
2023/04/10 11:06:19;;;;;;;21.92;11.23;;;;;;;1.80;81.93;99880.44;4898282;28;20059;-58
2023/04/10 11:08:53;;;;;;;25.05;11.95;;;;;;;1.78;81.80;99886.44;4908513;28;20151;-57
2023/04/10 11:11:26;;;;;;;27.58;13.20;;;;;;;1.71;81.67;99896.63;4908948;28;20057;-58
2023/04/10 11:14:19;;;;;;;28.30;14.98;;;;;;;1.69;82.38;99903.47;4898565;28;20140;-56
2023/04/10 11:16:53;;;;;;;25.25;14.02;;;;;;;1.62;82.56;99896.53;4898488;28;20476;-58
2023/04/10 11:19:26;;;;;;;23.08;13.20;;;;;;;1.82;82.67;99903.63;4907754;28;20571;-58
2023/04/10 11:22:14;;;;;;;26.95;14.02;;;;;;;1.81;82.44;99907.06;4900438;28;20061;-57
2023/04/10 11:24:57;;;;;;;32.00;14.20;;;;;;;1.67;82.36;99884.56;4901747;28;20152;-57
2023/04/10 11:27:52;;;;;;;23.75;11.93;;;;;;;1.48;82.51;99882.59;4898055;28;20052;-58
2023/04/10 11:30:35;;;;;;;23.77;14.65;;;;;;;1.41;82.53;99891.06;4897352;28;20526;-58
2023/04/10 11:33:09;;;;;;;30.52;19.17;;;;;;;1.43;83.15;99909.97;4897249;28;20052;-57
2023/04/10 11:35:40;;;;;;;23.75;14.25;;;;;;;1.44;83.45;99914.28;4908212;28;20052;-58
2023/04/10 11:38:15;;;;;;;20.85;11.43;;;;;;;1.47;83.79;99911.72;4908170;28;20071;-57
2023/04/10 11:41:02;;;;;;;20.00;10.00;;;;;;;1.51;83.42;99918.66;4897035;28;20536;-58
2023/04/10 11:43:35;;;;;;;25.63;10.82;;;;;;;1.53;83.63;99909.25;4900998;28;20048;-58
2023/04/10 11:46:07;;;;;;;19.17;9.95;;;;;;;1.15;83.51;99837.50;4909561;28;20049;-58
2023/04/10 11:48:38;;;;;;;18.77;10.20;;;;;;;1.62;83.49;99917.13;4911572;28;20052;-58
2023/04/10 11:51:12;;;;;;;17.23;8.98;;;;;;;1.65;83.43;99917.16;4910808;28;20044;-57
2023/04/10 11:53:43;;;;;;;18.17;9.90;;;;;;;1.72;83.58;99924.13;4911180;28;20059;-58